Time;durP1;ratioP1;P1;durP2;ratioP2;P2;SDS_P1;SDS_P2;PMS_P1;PMS_P2;Temp;Humidity;BMP_temperature;BMP_pressure;BME280_temperature;BME280_humidity;BME280_pressure;Samples;Min_cycle;Max_cycle;Signal;HPM_P1;HPM_P2
2023/07/30 00:02:21;;;;;;;2.50;1.13;;;25.20;50.30;;;;;;4988503;28;20034;-64
2023/07/30 00:04:48;;;;;;;2.10;1.00;;;25.20;50.40;;;;;;4990048;28;20026;-63
2023/07/30 00:07:15;;;;;;;2.47;0.93;;;25.20;50.30;;;;;;4986076;28;20053;-63
2023/07/30 00:09:41;;;;;;;2.03;1.08;;;25.20;50.30;;;;;;4990261;28;20038;-64
2023/07/30 00:12:08;;;;;;;3.00;1.17;;;25.20;50.40;;;;;;4990668;28;20057;-63
2023/07/30 00:14:34;;;;;;;2.92;1.05;;;25.20;50.30;;;;;;4991492;28;20433;-62
2023/07/30 00:17:00;;;;;;;2.05;0.93;;;25.20;50.30;;;;;;4988366;28;20030;-61
2023/07/30 00:19:26;;;;;;;2.25;1.17;;;25.20;50.30;;;;;;4990382;28;20033;-61
2023/07/30 00:21:52;;;;;;;2.10;1.10;;;25.10;50.20;;;;;;4990040;28;20401;-60
2023/07/30 00:24:18;;;;;;;2.92;1.08;;;25.20;50.20;;;;;;4986735;28;20030;-61
2023/07/30 00:26:43;;;;;;;1.65;1.02;;;25.10;50.20;;;;;;4984511;28;20022;-62
2023/07/30 00:29:09;;;;;;;2.53;1.20;;;25.10;50.20;;;;;;4980396;28;20041;-62
2023/07/30 00:31:36;;;;;;;1.90;1.10;;;25.10;50.20;;;;;;4990405;28;20062;-61
2023/07/30 00:34:02;;;;;;;2.78;1.13;;;25.10;50.10;;;;;;4987359;28;20077;-63
2023/07/30 00:36:28;;;;;;;2.03;1.10;;;25.10;50.10;;;;;;4989422;28;20060;-61
2023/07/30 00:38:54;;;;;;;1.92;1.13;;;25.10;50.00;;;;;;4990116;28;20030;-62
2023/07/30 00:41:20;;;;;;;1.80;0.90;;;25.10;50.00;;;;;;4989456;28;20029;-63
2023/07/30 00:43:46;;;;;;;2.58;1.00;;;25.10;50.00;;;;;;4989457;28;20205;-60
2023/07/30 00:46:12;;;;;;;2.58;1.17;;;25.10;50.00;;;;;;4985675;28;20022;-63
2023/07/30 00:48:38;;;;;;;2.20;0.85;;;25.10;49.90;;;;;;4987306;28;20033;-62
2023/07/30 00:51:04;;;;;;;1.83;0.98;;;25.10;49.90;;;;;;4989508;28;20105;-62
2023/07/30 00:53:31;;;;;;;2.55;1.08;;;25.00;49.80;;;;;;4986163;28;20401;-60
2023/07/30 00:55:58;;;;;;;1.98;1.05;;;25.00;49.80;;;;;;4984596;28;20041;-62
2023/07/30 00:58:24;;;;;;;2.72;1.15;;;25.00;49.80;;;;;;4989365;28;20141;-62
2023/07/30 01:00:53;;;;;;;1.75;1.17;;;25.00;49.70;;;;;;4986777;28;20035;-61
2023/07/30 01:03:19;;;;;;;1.90;1.10;;;25.00;49.70;;;;;;4988806;28;20172;-61
2023/07/30 01:05:45;;;;;;;2.42;1.10;;;25.00;49.70;;;;;;4989325;28;20165;-61
2023/07/30 01:08:11;;;;;;;1.90;0.98;;;25.00;49.70;;;;;;4996216;28;20042;-62
2023/07/30 01:10:40;;;;;;;1.50;0.93;;;25.00;49.70;;;;;;4990478;28;20311;-61
2023/07/30 01:13:08;;;;;;;2.13;1.00;;;25.00;49.70;;;;;;4988827;28;20031;-61
2023/07/30 01:15:34;;;;;;;3.15;1.13;;;25.00;49.60;;;;;;4981995;28;20042;-60
2023/07/30 01:18:00;;;;;;;1.58;0.90;;;25.00;49.60;;;;;;4968073;28;20034;-61
2023/07/30 01:20:31;;;;;;;2.25;1.15;;;25.00;49.60;;;;;;4988867;28;20101;-61
2023/07/30 01:22:58;;;;;;;2.00;1.13;;;25.00;49.50;;;;;;4988356;28;20026;-61
2023/07/30 01:25:28;;;;;;;2.20;1.05;;;25.00;49.50;;;;;;4989552;28;20121;-62
2023/07/30 01:27:57;;;;;;;3.05;1.15;;;25.00;49.50;;;;;;4977908;28;20046;-63
2023/07/30 01:30:30;;;;;;;1.23;0.70;;;25.00;49.50;;;;;;4985713;28;20113;-61
2023/07/30 01:32:58;;;;;;;1.10;0.85;;;24.90;49.50;;;;;;4986199;28;20192;-62
2023/07/30 01:35:27;;;;;;;1.83;0.98;;;24.90;49.50;;;;;;4977277;28;20122;-60
2023/07/30 01:37:53;;;;;;;1.15;0.70;;;24.90;49.50;;;;;;4989663;28;20060;-61
2023/07/30 01:40:20;;;;;;;1.83;0.98;;;24.90;49.50;;;;;;4983278;28;20046;-60
2023/07/30 01:42:48;;;;;;;1.65;1.17;;;24.90;49.50;;;;;;4988467;28;20041;-61
2023/07/30 01:45:16;;;;;;;1.77;0.95;;;24.90;49.60;;;;;;4990816;28;20104;-60
2023/07/30 01:47:41;;;;;;;2.10;1.05;;;24.90;49.60;;;;;;4990782;28;20042;-60
2023/07/30 01:50:08;;;;;;;1.63;1.00;;;24.90;49.60;;;;;;4978421;28;20138;-60
2023/07/30 01:52:34;;;;;;;2.17;1.10;;;24.90;49.60;;;;;;4983658;28;20030;-61
2023/07/30 01:55:01;;;;;;;2.25;0.80;;;24.90;49.60;;;;;;4992221;28;20026;-60
2023/07/30 01:57:27;;;;;;;2.30;1.17;;;24.90;49.50;;;;;;4992290;28;20030;-61
2023/07/30 01:59:53;;;;;;;2.15;1.15;;;24.90;49.60;;;;;;4989302;28;20026;-60
2023/07/30 02:02:19;;;;;;;1.65;1.02;;;24.90;49.70;;;;;;4989611;28;20110;-61
2023/07/30 02:04:44;;;;;;;1.33;0.75;;;24.90;49.70;;;;;;4992561;28;20045;-61
2023/07/30 02:07:10;;;;;;;1.63;1.00;;;24.90;49.70;;;;;;4989585;28;20127;-61
2023/07/30 02:09:36;;;;;;;2.60;1.13;;;24.90;49.70;;;;;;4992268;28;20034;-60
2023/07/30 02:12:02;;;;;;;2.92;1.02;;;24.80;49.60;;;;;;4976351;28;20142;-61
2023/07/30 02:14:28;;;;;;;1.83;1.00;;;24.80;49.60;;;;;;4992320;28;20082;-62
2023/07/30 02:16:59;;;;;;;2.03;1.05;;;24.80;49.60;;;;;;4991067;28;20042;-61
2023/07/30 02:19:25;;;;;;;3.03;1.25;;;24.80;49.60;;;;;;4973256;28;20018;-60
2023/07/30 02:21:51;;;;;;;1.88;0.90;;;24.80;49.60;;;;;;4965975;28;20030;-60
2023/07/30 02:24:17;;;;;;;3.88;0.93;;;24.80;49.60;;;;;;4994309;28;20030;-61
2023/07/30 02:26:43;;;;;;;1.35;1.00;;;24.80;49.50;;;;;;4989310;28;20069;-60
2023/07/30 02:29:09;;;;;;;3.63;1.10;;;24.80;49.50;;;;;;4991796;28;20383;-62
2023/07/30 02:31:35;;;;;;;1.80;0.95;;;24.80;49.50;;;;;;4991088;28;20418;-61
2023/07/30 02:34:01;;;;;;;2.70;1.10;;;24.80;49.50;;;;;;4992182;28;20038;-62
2023/07/30 02:36:26;;;;;;;3.45;1.60;;;24.80;49.50;;;;;;4992588;28;20034;-60
2023/07/30 02:38:52;;;;;;;1.40;0.95;;;24.70;49.40;;;;;;4992761;28;20058;-61
2023/07/30 02:41:18;;;;;;;2.38;1.20;;;24.70;49.40;;;;;;4991599;28;20026;-61
2023/07/30 02:43:44;;;;;;;2.63;1.10;;;24.70;49.50;;;;;;4988394;28;20037;-61
2023/07/30 02:46:10;;;;;;;3.03;1.02;;;24.70;49.40;;;;;;4988082;28;20030;-63
2023/07/30 02:48:36;;;;;;;1.50;0.93;;;24.70;49.40;;;;;;4990878;28;20476;-61
2023/07/30 02:51:02;;;;;;;2.08;1.15;;;24.70;49.40;;;;;;4990870;28;20318;-62
2023/07/30 02:53:28;;;;;;;1.92;1.10;;;24.70;49.50;;;;;;4986854;28;20050;-60
2023/07/30 02:55:54;;;;;;;1.95;1.08;;;24.70;49.50;;;;;;4991195;28;20030;-59
2023/07/30 02:58:20;;;;;;;3.03;1.20;;;24.70;49.50;;;;;;4991013;28;20045;-61
2023/07/30 03:00:46;;;;;;;2.45;1.13;;;24.70;49.50;;;;;;4992192;28;20038;-62
2023/07/30 03:03:12;;;;;;;1.73;1.00;;;24.70;49.50;;;;;;4987046;28;20027;-60
2023/07/30 03:05:42;;;;;;;2.63;1.00;;;24.70;49.50;;;;;;4989505;28;20027;-60
2023/07/30 03:08:08;;;;;;;3.00;1.30;;;24.70;49.50;;;;;;4969182;28;20050;-63
2023/07/30 03:10:35;;;;;;;2.38;1.08;;;24.70;49.60;;;;;;4990649;28;20038;-62
2023/07/30 03:13:01;;;;;;;3.63;1.10;;;24.70;49.60;;;;;;4992053;28;20095;-61
2023/07/30 03:15:28;;;;;;;2.92;1.10;;;24.70;49.60;;;;;;4985240;28;20063;-62
2023/07/30 03:17:54;;;;;;;2.25;1.02;;;24.70;49.60;;;;;;4984857;28;20106;-62
2023/07/30 03:20:19;;;;;;;2.42;1.30;;;24.70;49.60;;;;;;4987862;28;20121;-62
2023/07/30 03:22:45;;;;;;;0.85;0.85;;;24.70;49.60;;;;;;4987881;28;20134;-61
2023/07/30 03:25:11;;;;;;;4.47;1.10;;;24.70;49.70;;;;;;4985716;28;20387;-61
2023/07/30 03:27:37;;;;;;;3.15;1.42;;;24.60;49.60;;;;;;4989616;28;20070;-62
2023/07/30 03:30:04;;;;;;;3.17;1.20;;;24.60;49.70;;;;;;4986514;28;20050;-62
2023/07/30 03:32:30;;;;;;;4.40;1.40;;;24.60;49.70;;;;;;4985841;28;20050;-60
2023/07/30 03:34:56;;;;;;;2.47;0.90;;;24.60;49.70;;;;;;4989526;28;20457;-62
2023/07/30 03:37:22;;;;;;;3.83;1.10;;;24.60;49.80;;;;;;4991537;28;20152;-60
2023/07/30 03:39:48;;;;;;;2.35;1.23;;;24.60;49.80;;;;;;4991393;28;20212;-61
2023/07/30 03:42:14;;;;;;;2.22;1.15;;;24.60;49.90;;;;;;4991754;28;20023;-61
2023/07/30 03:44:40;;;;;;;2.67;1.10;;;24.60;49.90;;;;;;4990721;28;20100;-62
2023/07/30 03:47:06;;;;;;;2.47;1.15;;;24.60;49.90;;;;;;4989087;28;20018;-61
2023/07/30 03:49:31;;;;;;;4.15;1.40;;;24.60;49.90;;;;;;4988093;28;20106;-59
2023/07/30 03:51:57;;;;;;;3.13;1.23;;;24.60;50.00;;;;;;4989431;28;20059;-60
2023/07/30 03:54:23;;;;;;;3.05;1.30;;;24.60;50.00;;;;;;4987943;28;20346;-60
2023/07/30 03:56:49;;;;;;;2.42;1.33;;;24.60;50.00;;;;;;4986881;28;20050;-61
2023/07/30 03:59:15;;;;;;;2.17;1.00;;;24.60;50.00;;;;;;4989676;28;20029;-61
2023/07/30 04:01:42;;;;;;;3.85;1.30;;;24.60;50.10;;;;;;4991192;28;20042;-63
2023/07/30 04:04:08;;;;;;;2.78;1.40;;;24.60;50.10;;;;;;4987791;28;20018;-61
2023/07/30 04:06:34;;;;;;;3.30;1.10;;;24.60;50.10;;;;;;4975062;28;20154;-60
2023/07/30 04:09:00;;;;;;;3.25;1.20;;;24.60;50.20;;;;;;4987341;28;20037;-62
2023/07/30 04:11:26;;;;;;;2.15;1.23;;;24.60;50.20;;;;;;4988613;28;20128;-62
2023/07/30 04:13:52;;;;;;;2.65;1.10;;;24.60;50.30;;;;;;4986444;28;20137;-61
2023/07/30 04:16:19;;;;;;;3.08;1.38;;;24.60;50.40;;;;;;4987802;28;20129;-61
2023/07/30 04:18:45;;;;;;;3.55;1.30;;;24.50;50.30;;;;;;4984401;28;20432;-62
2023/07/30 04:21:11;;;;;;;2.70;1.27;;;24.60;50.40;;;;;;4989947;28;20122;-62
2023/07/30 04:23:37;;;;;;;4.00;1.55;;;24.50;50.40;;;;;;4988043;28;20162;-61
2023/07/30 04:26:03;;;;;;;3.20;1.55;;;24.60;50.50;;;;;;4988123;28;20041;-63
2023/07/30 04:28:29;;;;;;;2.53;1.10;;;24.50;50.40;;;;;;4988117;28;20061;-62
2023/07/30 04:30:55;;;;;;;2.95;1.50;;;24.50;50.40;;;;;;4987317;28;20037;-60
2023/07/30 04:33:21;;;;;;;2.53;1.20;;;24.50;50.50;;;;;;4983723;28;20115;-61
2023/07/30 04:35:48;;;;;;;2.67;1.20;;;24.50;50.50;;;;;;4986856;28;20092;-61
2023/07/30 04:38:14;;;;;;;2.03;1.17;;;24.50;50.50;;;;;;5001909;28;20022;-61
2023/07/30 04:40:40;;;;;;;2.47;1.10;;;24.50;50.60;;;;;;4989464;28;20117;-62
2023/07/30 04:43:06;;;;;;;2.92;1.33;;;24.50;50.60;;;;;;4989148;28;20066;-63
2023/07/30 04:45:31;;;;;;;3.00;1.45;;;24.50;50.60;;;;;;4972803;28;20034;-62
2023/07/30 04:47:57;;;;;;;3.53;1.40;;;24.60;50.70;;;;;;4988639;28;20108;-61
2023/07/30 04:50:23;;;;;;;2.97;1.35;;;24.50;50.70;;;;;;4989154;28;20026;-63
2023/07/30 04:52:49;;;;;;;3.03;1.20;;;24.50;50.70;;;;;;4988057;28;20105;-62
2023/07/30 04:55:15;;;;;;;3.88;1.33;;;24.50;50.80;;;;;;4990289;28;20026;-63
2023/07/30 04:57:41;;;;;;;3.58;1.30;;;24.50;50.80;;;;;;4988794;28;20026;-62
2023/07/30 05:00:07;;;;;;;3.40;1.40;;;24.50;50.80;;;;;;4970644;28;20137;-62
2023/07/30 05:02:33;;;;;;;2.80;1.38;;;24.50;50.90;;;;;;4972197;28;20037;-63
2023/07/30 05:04:59;;;;;;;2.53;1.25;;;24.50;50.90;;;;;;4990618;28;20113;-63
2023/07/30 05:07:25;;;;;;;3.65;1.33;;;24.50;50.90;;;;;;4983628;28;20342;-63
2023/07/30 05:09:51;;;;;;;2.92;1.20;;;24.50;51.00;;;;;;4990523;28;20464;-62
2023/07/30 05:12:17;;;;;;;3.40;1.38;;;24.50;51.00;;;;;;4990334;28;21719;-61
2023/07/30 05:14:43;;;;;;;3.00;1.45;;;24.50;51.00;;;;;;4989681;28;20045;-61
2023/07/30 05:17:08;;;;;;;3.88;1.60;;;24.40;51.00;;;;;;4985626;28;20369;-62
2023/07/30 05:19:34;;;;;;;4.60;1.55;;;24.50;51.10;;;;;;4986209;28;20073;-62
2023/07/30 05:22:01;;;;;;;2.83;1.23;;;24.50;51.10;;;;;;4988203;28;20097;-65
2023/07/30 05:24:27;;;;;;;2.63;1.30;;;24.40;51.10;;;;;;4992976;28;20109;-64
2023/07/30 05:26:53;;;;;;;3.40;1.35;;;24.50;51.20;;;;;;4991281;28;20399;-63
2023/07/30 05:29:19;;;;;;;5.80;1.85;;;24.50;51.30;;;;;;4992216;28;20045;-64
2023/07/30 05:31:45;;;;;;;4.07;1.75;;;24.50;51.30;;;;;;4991260;28;20533;-61
2023/07/30 05:34:11;;;;;;;2.92;1.48;;;24.50;51.30;;;;;;4990092;28;20034;-62
2023/07/30 05:36:36;;;;;;;3.22;1.30;;;24.50;51.30;;;;;;4993006;28;20314;-62
2023/07/30 05:39:02;;;;;;;6.20;1.60;;;24.50;51.30;;;;;;4989826;28;20476;-62
2023/07/30 05:41:28;;;;;;;2.55;1.23;;;24.50;51.30;;;;;;4994305;28;20141;-62
2023/07/30 05:43:54;;;;;;;4.07;1.45;;;24.50;51.40;;;;;;4993353;28;20489;-61
2023/07/30 05:46:20;;;;;;;3.28;1.33;;;24.50;51.40;;;;;;4991007;28;20362;-62
2023/07/30 05:48:46;;;;;;;4.45;1.60;;;24.50;52.00;;;;;;4993304;28;20050;-63
2023/07/30 05:51:12;;;;;;;3.53;1.60;;;24.50;51.40;;;;;;4991441;28;20046;-62
2023/07/30 05:53:37;;;;;;;3.25;1.38;;;24.50;51.50;;;;;;4994026;28;20041;-62
2023/07/30 05:56:04;;;;;;;4.32;1.55;;;24.50;51.50;;;;;;4992818;28;20030;-63
2023/07/30 05:58:29;;;;;;;3.50;1.58;;;24.40;51.50;;;;;;4990169;28;20039;-61
2023/07/30 06:00:56;;;;;;;4.18;1.65;;;24.50;51.50;;;;;;4990076;28;20058;-63
2023/07/30 06:03:22;;;;;;;4.03;1.48;;;24.50;51.50;;;;;;4991463;28;20026;-61
2023/07/30 06:05:48;;;;;;;4.90;1.50;;;24.50;51.60;;;;;;4990629;28;20361;-63
2023/07/30 06:08:14;;;;;;;4.55;1.83;;;24.50;51.60;;;;;;4990091;28;20057;-62
2023/07/30 06:10:40;;;;;;;3.35;1.70;;;24.50;51.60;;;;;;4990135;28;20034;-61
2023/07/30 06:13:06;;;;;;;4.22;1.48;;;24.50;51.60;;;;;;4990028;28;20103;-62
2023/07/30 06:15:33;;;;;;;4.35;1.65;;;24.50;51.70;;;;;;4986969;28;20422;-63
2023/07/30 06:18:01;;;;;;;4.53;1.45;;;24.50;51.70;;;;;;4988467;28;20042;-60
2023/07/30 06:20:28;;;;;;;4.82;1.63;;;24.50;52.30;;;;;;4990532;28;20117;-61
2023/07/30 06:22:54;;;;;;;4.75;1.70;;;24.50;51.70;;;;;;4991689;28;20129;-61
2023/07/30 06:25:19;;;;;;;4.18;1.58;;;24.50;51.80;;;;;;4991401;28;20106;-64
2023/07/30 06:27:45;;;;;;;4.97;1.60;;;24.50;51.80;;;;;;4989720;28;20125;-63
2023/07/30 06:30:11;;;;;;;4.07;1.60;;;24.50;51.90;;;;;;4988696;28;20140;-64
2023/07/30 06:32:37;;;;;;;4.28;1.70;;;24.50;52.00;;;;;;4989808;28;20029;-65
2023/07/30 06:35:03;;;;;;;4.82;1.80;;;24.50;52.00;;;;;;4990300;28;20149;-61
2023/07/30 06:37:29;;;;;;;4.35;1.63;;;24.50;52.00;;;;;;4986859;28;20093;-62
2023/07/30 06:39:55;;;;;;;3.78;1.42;;;24.50;52.00;;;;;;4991400;28;20022;-62
2023/07/30 06:42:21;;;;;;;3.08;1.58;;;24.50;52.00;;;;;;4990158;28;20026;-62
2023/07/30 06:44:47;;;;;;;3.42;1.67;;;24.50;52.00;;;;;;4990504;28;20041;-63
2023/07/30 06:47:13;;;;;;;3.25;1.45;;;24.50;52.00;;;;;;4990473;28;20030;-62
2023/07/30 06:49:39;;;;;;;4.88;1.50;;;24.50;52.00;;;;;;4990183;28;20026;-60
2023/07/30 06:52:05;;;;;;;4.47;1.73;;;24.50;52.00;;;;;;4990740;28;20463;-61
2023/07/30 06:54:31;;;;;;;3.47;1.60;;;24.50;52.00;;;;;;4991226;28;20069;-62
2023/07/30 06:56:57;;;;;;;3.20;1.40;;;24.60;52.10;;;;;;4988517;28;20082;-62
2023/07/30 06:59:22;;;;;;;4.25;1.60;;;24.60;52.10;;;;;;4989244;28;20085;-63
2023/07/30 07:01:48;;;;;;;3.72;1.50;;;24.60;52.10;;;;;;4989467;28;20040;-62
2023/07/30 07:04:15;;;;;;;3.30;1.38;;;24.60;52.00;;;;;;4988624;28;20358;-63
2023/07/30 07:06:40;;;;;;;4.28;1.60;;;24.60;52.00;;;;;;4988772;28;20130;-61
2023/07/30 07:09:06;;;;;;;5.47;1.52;;;24.60;52.10;;;;;;4987414;28;20042;-61
2023/07/30 07:11:32;;;;;;;4.60;1.50;;;24.60;52.00;;;;;;4988992;28;20050;-64
2023/07/30 07:13:58;;;;;;;3.95;1.67;;;24.60;52.00;;;;;;4987293;28;20120;-64
2023/07/30 07:16:24;;;;;;;3.72;1.42;;;24.60;52.10;;;;;;4989931;28;20038;-62
2023/07/30 07:18:50;;;;;;;3.17;1.50;;;24.60;52.10;;;;;;4988226;28;20045;-62
2023/07/30 07:21:16;;;;;;;3.78;1.50;;;24.60;52.10;;;;;;4989965;28;20076;-63
2023/07/30 07:23:42;;;;;;;3.90;1.70;;;24.60;52.10;;;;;;4989052;28;20046;-63
2023/07/30 07:26:08;;;;;;;3.75;1.63;;;24.60;52.10;;;;;;4989968;28;20030;-62
2023/07/30 07:28:34;;;;;;;3.75;1.48;;;24.60;52.00;;;;;;4986964;28;20104;-64
2023/07/30 07:31:00;;;;;;;3.08;1.38;;;24.60;52.10;;;;;;4985074;28;20104;-63
2023/07/30 07:33:27;;;;;;;4.45;1.40;;;24.60;52.00;;;;;;4986591;28;20034;-63
2023/07/30 07:36:07;;;;;;;4.28;1.75;;;24.60;52.10;;;;;;4985916;28;20452;-63
2023/07/30 07:38:34;;;;;;;3.85;1.42;;;24.70;52.10;;;;;;4987842;28;20161;-63
2023/07/30 07:41:01;;;;;;;4.00;1.75;;;24.70;52.10;;;;;;4988976;28;20026;-63
2023/07/30 07:43:27;;;;;;;3.63;1.70;;;24.70;52.10;;;;;;4984324;28;20358;-63
2023/07/30 07:45:53;;;;;;;4.25;1.50;;;24.70;52.10;;;;;;4984649;28;20113;-61
2023/07/30 07:48:19;;;;;;;4.15;1.75;;;24.70;52.10;;;;;;4987869;28;20117;-61
2023/07/30 07:50:45;;;;;;;2.97;1.42;;;24.70;52.10;;;;;;4988881;28;20664;-62
2023/07/30 07:53:11;;;;;;;4.18;1.77;;;24.70;52.10;;;;;;4990349;28;20022;-60
2023/07/30 07:55:37;;;;;;;4.63;1.80;;;24.70;52.10;;;;;;4989993;28;20089;-61
2023/07/30 07:58:03;;;;;;;5.97;1.83;;;24.70;52.00;;;;;;4990103;28;20027;-60
2023/07/30 08:00:29;;;;;;;4.95;1.70;;;24.70;51.90;;;;;;4989830;28;20027;-61
2023/07/30 08:02:55;;;;;;;5.07;2.08;;;24.80;51.90;;;;;;4988309;28;20054;-62
2023/07/30 08:05:21;;;;;;;6.38;1.85;;;24.70;51.80;;;;;;4989264;28;20045;-60
2023/07/30 08:07:47;;;;;;;3.58;1.55;;;24.80;51.70;;;;;;4988034;28;20054;-59
2023/07/30 08:10:13;;;;;;;5.35;1.98;;;24.70;51.60;;;;;;4988301;28;20030;-61
2023/07/30 08:12:39;;;;;;;4.97;1.75;;;24.70;51.50;;;;;;4989384;28;20069;-61
2023/07/30 08:15:05;;;;;;;5.03;1.92;;;24.80;51.50;;;;;;4989230;28;20030;-60
2023/07/30 08:17:31;;;;;;;5.43;1.90;;;24.80;51.40;;;;;;4983251;28;20030;-61
2023/07/30 08:19:57;;;;;;;4.05;1.52;;;24.80;51.40;;;;;;4989707;28;20044;-61
2023/07/30 08:22:23;;;;;;;5.05;1.70;;;24.80;51.40;;;;;;4972435;28;20022;-60
2023/07/30 08:24:49;;;;;;;5.18;1.80;;;24.80;51.30;;;;;;4988202;28;20031;-60
2023/07/30 08:27:15;;;;;;;4.30;2.05;;;24.80;51.30;;;;;;4989857;28;20040;-63
2023/07/30 08:29:41;;;;;;;5.40;1.90;;;24.80;51.30;;;;;;4993130;28;20196;-57
2023/07/30 08:32:06;;;;;;;6.82;2.08;;;24.80;51.30;;;;;;4992350;28;20031;-63
2023/07/30 08:34:32;;;;;;;5.38;1.70;;;24.80;51.30;;;;;;5011424;28;20034;-62
2023/07/30 08:36:58;;;;;;;3.63;1.45;;;24.80;51.20;;;;;;5012666;28;20082;-62
2023/07/30 08:39:24;;;;;;;5.28;1.55;;;24.90;51.20;;;;;;5007830;28;20109;-61
2023/07/30 08:41:50;;;;;;;5.15;1.70;;;24.90;51.20;;;;;;4986682;28;20062;-61
2023/07/30 08:44:16;;;;;;;5.00;1.52;;;24.90;51.20;;;;;;4990939;28;20088;-61
2023/07/30 08:46:42;;;;;;;3.92;1.40;;;24.90;51.20;;;;;;4990056;28;20084;-61
2023/07/30 08:49:08;;;;;;;4.65;1.60;;;24.90;51.20;;;;;;4988338;28;20046;-61
2023/07/30 08:51:37;;;;;;;5.65;1.38;;;24.90;51.20;;;;;;4988876;28;20453;-62
2023/07/30 08:54:03;;;;;;;4.75;1.48;;;24.90;51.20;;;;;;4987205;28;20030;-61
2023/07/30 08:56:31;;;;;;;4.53;1.50;;;24.90;51.20;;;;;;4987367;28;20041;-62
2023/07/30 08:58:59;;;;;;;10.40;3.47;;;24.90;51.20;;;;;;4989154;28;20034;-64
2023/07/30 09:01:31;;;;;;;13.80;6.28;;;24.90;51.30;;;;;;4987619;28;20072;-66
2023/07/30 09:04:00;;;;;;;25.08;10.10;;;24.90;51.70;;;;;;4988568;28;20026;-64
2023/07/30 09:06:26;;;;;;;26.23;10.23;;;24.90;52.20;;;;;;4986569;28;20052;-66
2023/07/30 09:08:53;;;;;;;24.88;10.88;;;24.90;52.90;;;;;;4988533;28;20034;-64
2023/07/30 09:11:20;;;;;;;23.65;9.60;;;25.00;53.50;;;;;;4987959;28;20066;-61
2023/07/30 09:13:46;;;;;;;24.60;9.10;;;25.00;53.90;;;;;;4987302;28;20037;-63
2023/07/30 09:16:13;;;;;;;19.70;8.25;;;25.00;54.20;;;;;;4986271;28;20030;-63
2023/07/30 09:18:41;;;;;;;24.67;10.15;;;25.00;54.40;;;;;;4986654;28;20037;-65
2023/07/30 09:21:08;;;;;;;21.48;9.43;;;25.00;54.60;;;;;;4987922;28;20022;-64
2023/07/30 09:23:43;;;;;;;23.95;9.10;;;25.00;54.70;;;;;;4987866;28;20022;-65
2023/07/30 09:26:09;;;;;;;22.65;8.82;;;25.10;54.70;;;;;;4987888;28;20132;-63
2023/07/30 09:28:36;;;;;;;20.42;8.80;;;25.10;54.60;;;;;;4988639;28;20038;-66
2023/07/30 09:31:03;;;;;;;22.42;8.43;;;25.10;54.30;;;;;;4988895;28;20080;-65
2023/07/30 09:33:30;;;;;;;22.02;9.63;;;25.10;54.10;;;;;;4986171;28;20091;-66
2023/07/30 09:35:56;;;;;;;25.10;10.40;;;25.20;54.50;;;;;;4989059;28;20035;-62
2023/07/30 09:38:30;;;;;;;21.20;9.10;;;25.20;54.90;;;;;;4987900;28;20022;-66
2023/07/30 09:41:03;;;;;;;22.88;9.20;;;25.20;55.30;;;;;;4988806;28;20050;-62
2023/07/30 09:43:32;;;;;;;24.48;9.63;;;25.20;55.50;;;;;;4988432;28;20030;-62
2023/07/30 09:46:02;;;;;;;17.13;7.45;;;25.30;55.80;;;;;;4987034;28;20080;-64
2023/07/30 09:48:31;;;;;;;21.02;8.18;;;25.30;55.90;;;;;;4981433;28;20321;-61
2023/07/30 09:51:03;;;;;;;19.08;8.35;;;25.30;55.80;;;;;;4987818;28;20026;-62
2023/07/30 09:53:34;;;;;;;22.08;9.00;;;25.30;55.70;;;;;;4982473;28;20133;-62
2023/07/30 09:56:05;;;;;;;15.23;7.28;;;25.30;55.60;;;;;;4988428;28;20326;-64
2023/07/30 09:58:32;;;;;;;13.48;5.88;;;25.30;55.40;;;;;;4988507;28;20039;-64
2023/07/30 10:01:01;;;;;;;14.20;5.95;;;25.40;54.90;;;;;;4987913;28;20077;-63
2023/07/30 10:03:28;;;;;;;11.25;4.93;;;25.40;54.50;;;;;;4981843;28;20489;-65
2023/07/30 10:06:04;;;;;;;10.43;4.18;;;25.40;54.20;;;;;;4983263;28;20026;-67
2023/07/30 10:08:36;;;;;;;8.45;3.65;;;25.40;53.80;;;;;;4985034;28;20125;-64
2023/07/30 10:11:04;;;;;;;9.73;3.80;;;25.40;53.50;;;;;;4986912;28;20058;-64
2023/07/30 10:13:31;;;;;;;7.95;3.78;;;25.40;53.10;;;;;;4989045;28;20030;-65
2023/07/30 10:15:59;;;;;;;7.07;3.22;;;25.40;52.70;;;;;;4989849;28;20030;-66
2023/07/30 10:18:42;;;;;;;7.85;3.10;;;25.40;52.40;;;;;;4985524;28;20056;-67
2023/07/30 10:21:09;;;;;;;7.95;2.78;;;25.40;52.10;;;;;;4988242;28;20026;-67
2023/07/30 10:23:35;;;;;;;6.57;2.78;;;25.40;51.90;;;;;;4989652;28;20469;-65
2023/07/30 10:26:12;;;;;;;8.05;2.88;;;25.40;51.70;;;;;;4991598;28;20033;-65
2023/07/30 10:28:43;;;;;;;7.40;2.88;;;25.40;51.50;;;;;;4991641;28;20038;-65
2023/07/30 10:31:09;;;;;;;5.43;2.30;;;25.40;51.40;;;;;;4991155;28;20083;-65
2023/07/30 10:33:45;;;;;;;5.72;2.13;;;25.40;51.30;;;;;;4990093;28;20109;-64
2023/07/30 10:36:11;;;;;;;5.75;2.08;;;25.40;51.20;;;;;;4988539;28;20026;-64
2023/07/30 10:38:38;;;;;;;5.18;1.92;;;25.40;51.20;;;;;;4986479;28;20073;-64
2023/07/30 10:41:08;;;;;;;4.57;1.80;;;25.40;51.00;;;;;;4985061;28;20216;-63
2023/07/30 10:43:43;;;;;;;4.20;1.70;;;25.40;50.80;;;;;;4986946;28;20097;-65
2023/07/30 10:46:13;;;;;;;5.22;2.30;;;25.40;50.60;;;;;;4984245;28;20371;-64
2023/07/30 10:48:41;;;;;;;3.85;1.75;;;25.40;50.50;;;;;;4986743;28;20144;-64
2023/07/30 10:51:11;;;;;;;6.40;2.17;;;25.40;50.40;;;;;;4988243;28;20136;-67
2023/07/30 10:53:37;;;;;;;3.72;1.58;;;25.40;50.30;;;;;;4990759;28;20030;-65
2023/07/30 10:56:04;;;;;;;4.72;1.40;;;25.40;50.20;;;;;;4989094;28;20022;-66
2023/07/30 10:58:34;;;;;;;2.70;1.30;;;25.40;50.10;;;;;;4987121;28;20018;-63
2023/07/30 11:01:08;;;;;;;4.03;1.83;;;25.40;50.00;;;;;;4986293;28;20038;-68
2023/07/30 11:03:35;;;;;;;4.40;1.52;;;25.40;49.80;;;;;;4987354;28;21618;-65
2023/07/30 11:06:02;;;;;;;4.68;1.55;;;25.40;49.80;;;;;;4996440;28;20033;-65
2023/07/30 11:08:46;;;;;;;3.75;1.40;;;25.40;49.70;;;;;;4986769;28;20078;-67
2023/07/30 11:11:12;;;;;;;4.22;1.55;;;25.40;49.50;;;;;;5007845;28;20038;-65
2023/07/30 11:13:40;;;;;;;2.70;1.40;;;25.40;49.50;;;;;;5014132;28;20532;-67
2023/07/30 11:16:08;;;;;;;3.33;1.25;;;25.50;49.50;;;;;;4992096;28;20138;-64
2023/07/30 11:18:36;;;;;;;3.22;1.25;;;25.40;49.40;;;;;;4988906;28;20350;-64
2023/07/30 11:21:12;;;;;;;4.60;1.33;;;25.50;49.50;;;;;;4986951;28;20038;-66
2023/07/30 11:23:41;;;;;;;3.03;1.05;;;25.50;49.40;;;;;;4988580;28;20157;-67
2023/07/30 11:26:08;;;;;;;2.30;0.82;;;25.50;49.40;;;;;;5000875;28;20048;-64
2023/07/30 11:28:37;;;;;;;3.92;1.35;;;25.40;49.30;;;;;;4993794;28;20050;-66
2023/07/30 11:31:06;;;;;;;4.25;1.00;;;25.50;49.40;;;;;;4992327;28;20430;-67
2023/07/30 11:33:33;;;;;;;3.35;1.15;;;25.50;49.40;;;;;;4991303;28;20053;-69
2023/07/30 11:36:02;;;;;;;3.03;1.00;;;25.50;49.40;;;;;;4981593;28;20224;-65
2023/07/30 11:38:29;;;;;;;2.92;0.90;;;25.50;49.30;;;;;;4984363;28;20109;-66
2023/07/30 11:40:56;;;;;;;2.92;0.98;;;25.50;49.30;;;;;;4979103;28;20034;-66
2023/07/30 11:43:22;;;;;;;3.13;0.98;;;25.50;49.30;;;;;;4986889;28;20018;-67
2023/07/30 11:45:49;;;;;;;2.10;0.63;;;25.50;49.40;;;;;;4981745;28;20026;-66
2023/07/30 11:48:15;;;;;;;2.35;0.90;;;25.50;49.40;;;;;;4987091;28;20050;-66
2023/07/30 11:50:47;;;;;;;1.63;0.80;;;25.50;49.30;;;;;;4986638;28;20105;-66
2023/07/30 11:53:14;;;;;;;2.40;0.98;;;25.60;49.30;;;;;;4986988;28;20137;-68
2023/07/30 11:55:42;;;;;;;2.33;0.90;;;25.70;49.20;;;;;;4988341;28;20098;-68
2023/07/30 11:58:11;;;;;;;2.63;0.80;;;25.80;48.90;;;;;;4986646;28;20121;-64
2023/07/30 12:00:39;;;;;;;4.78;1.20;;;25.90;48.80;;;;;;4982694;28;20121;-64
2023/07/30 12:03:07;;;;;;;2.05;0.88;;;26.00;48.60;;;;;;4984785;28;20041;-69
2023/07/30 12:05:34;;;;;;;2.67;1.05;;;26.10;48.40;;;;;;4982841;28;20449;-67
2023/07/30 12:08:03;;;;;;;3.08;1.10;;;26.20;48.30;;;;;;4983832;28;20047;-67
2023/07/30 12:10:51;;;;;;;3.05;1.08;;;26.30;48.20;;;;;;4981995;28;20905;-68
2023/07/30 12:13:19;;;;;;;3.67;1.00;;;26.40;47.90;;;;;;4997742;28;20034;-65
2023/07/30 12:15:52;;;;;;;2.75;1.17;;;26.50;47.90;;;;;;4983372;28;20042;-67
2023/07/30 12:18:20;;;;;;;4.47;1.35;;;26.60;47.80;;;;;;4983631;28;20034;-66
2023/07/30 12:20:46;;;;;;;3.65;1.58;;;26.70;47.70;;;;;;4985894;28;20058;-69
2023/07/30 12:23:13;;;;;;;3.20;1.48;;;26.70;47.50;;;;;;4986205;28;20026;-66
2023/07/30 12:25:39;;;;;;;2.40;1.25;;;26.80;47.40;;;;;;4998704;28;20030;-66
2023/07/30 12:28:05;;;;;;;4.00;1.52;;;26.90;47.30;;;;;;4984400;28;20084;-66
2023/07/30 12:30:31;;;;;;;7.63;2.15;;;26.90;47.20;;;;;;4984926;28;20074;-65
2023/07/30 12:32:57;;;;;;;4.20;1.63;;;27.00;47.10;;;;;;4987178;28;20493;-67
2023/07/30 12:35:24;;;;;;;2.67;1.40;;;27.00;47.00;;;;;;4986362;28;20041;-67
2023/07/30 12:37:50;;;;;;;3.78;1.55;;;27.10;46.90;;;;;;4982806;28;20054;-65
2023/07/30 12:40:17;;;;;;;3.55;1.67;;;27.10;46.80;;;;;;4985998;28;20371;-66
2023/07/30 12:42:43;;;;;;;5.70;1.85;;;27.20;46.70;;;;;;4985398;28;20031;-66
2023/07/30 12:45:09;;;;;;;3.15;1.17;;;27.20;46.60;;;;;;4985942;28;20080;-68